Etusivu
METAR-TAF:

METAR-TAF

Lentoasemat :

Riika, Latvia

Riian kansainvälinen lentoasema

Leveyspiiri: 56-55N, Pituuspiiri: 023-58E, korkeus merenpinnasta: 10 m

Tämänhetkinen sää

Tämä raportti tehtiin 24 minuuttia sitten, kello 09.50 UTC
Tuuli 9 kn idästä/kaakosta, vaihdellen idän ja etelän/kaakon välillä
Lämpötila 18°C
Kosteus 59%
Ilmanpaine 1031 hPa
Näkyvyys 10 km tai enemmän
ei pilviä alle 1500 m:ssä eikä cumulonimbus-pilviä

METAR: EVRA 240950Z 11009KT 080V150 CAVOK 18/10 Q1031 NOSIG

Aika: 13:14 (10:14 UTC)

Sääennuste

Tämä raportti tehtiin 2 tuntia ja 14 minuuttia sitten, kello 08.00 UTC
Ennuste voimassa 24. päivästä klo 09 UTC - 25. päivään klo 09 UTC
Tuuli 7 kn idästä
Näkyvyys 10 km tai enemmän
ei pilviä alle 1500 m:ssä eikä cumulonimbus-pilviä

TAF: EVRA 240800Z 2409/2509 09007KT CAVOK

Säähavainnot ja -ennusteet yli 4000 lentoasemalta (METAR- ja TAF-raportit).

Käytössä olevat sääasemat on merkitty karttaan keltaisilla ja punaisilla pisteillä.

Aseta hiiri pisteen päälle nähdäksesi sääaseman nimen.

Klikkaa sitten nähdäksesi säähavainnot ja -ennusteet.

Kartan vaihtaminen: klikkaa mustalla rastilla varustettuja vihreitä pisteitä, niin voit zoomata sisään; viivalla varustettua vihreää pistettä, niin voit zoomata ulos tai vihreitä nuolia, niin pääset viereisille kartoille.


METAR-TAF: